createdAt,value
2023-04-09T00:05:02.246Z,981.4
2023-04-09T00:10:33.988Z,981.44
2023-04-09T00:16:05.664Z,981.37
2023-04-09T00:21:37.583Z,981.57
2023-04-09T00:27:08.922Z,981.6
2023-04-09T00:32:40.684Z,981.55
2023-04-09T00:38:18.865Z,981.59
2023-04-09T00:43:50.821Z,981.6
2023-04-09T00:49:22.372Z,981.62
2023-04-09T00:54:54.076Z,981.78
2023-04-09T01:00:26.075Z,981.83
2023-04-09T01:06:09.848Z,981.88
2023-04-09T01:11:29.354Z,982.03
2023-04-09T01:17:01.053Z,982.09
2023-04-09T01:22:32.934Z,982.08
2023-04-09T01:28:05.105Z,981.94
2023-04-09T01:33:36.037Z,982.03
2023-04-09T01:39:12.308Z,982.01
2023-04-09T01:44:44.051Z,982.13
2023-04-09T01:50:15.961Z,981.94
2023-04-09T01:55:47.408Z,981.73
2023-04-09T02:01:19.349Z,981.83
2023-04-09T02:06:51.042Z,981.99
2023-04-09T02:12:22.766Z,981.95
2023-04-09T02:17:54.614Z,982.26
2023-04-09T02:23:27.366Z,982.47
2023-04-09T02:28:57.976Z,982.57
2023-04-09T02:34:29.341Z,982.48
2023-04-09T02:40:05.607Z,982.33
2023-04-09T02:45:37.340Z,982.34
2023-04-09T02:51:09.213Z,981.99
2023-04-09T02:56:40.812Z,981.95
2023-04-09T03:02:13.129Z,981.81
2023-04-09T03:07:44.775Z,981.66
2023-04-09T03:13:15.853Z,981.46
2023-04-09T03:18:47.731Z,981.35
2023-04-09T03:24:19.461Z,981.15
2023-04-09T03:29:51.226Z,981.13
2023-04-09T03:35:23.537Z,981.24
2023-04-09T03:40:59.391Z,981.22
2023-04-09T03:46:30.964Z,981.38
2023-04-09T03:52:02.677Z,981.36
2023-04-09T03:57:34.344Z,981.46
2023-04-09T04:03:07.164Z,981.59
2023-04-09T04:08:37.675Z,981.65
2023-04-09T04:14:09.511Z,981.66
2023-04-09T04:19:40.979Z,981.83
2023-04-09T04:25:12.881Z,981.77
2023-04-09T04:30:44.505Z,981.92
2023-04-09T04:36:16.285Z,981.98
2023-04-09T04:41:52.576Z,981.71
2023-04-09T04:47:24.619Z,981.97
2023-04-09T04:52:56.197Z,981.94
2023-04-09T04:58:27.785Z,982.07
2023-04-09T05:03:59.919Z,982.05
2023-04-09T05:09:30.937Z,982.12
2023-04-09T05:15:02.771Z,982.22
2023-04-09T05:20:34.578Z,982.23
2023-04-09T05:26:06.370Z,982.37
2023-04-09T05:31:37.997Z,982.69
2023-04-09T05:37:10.468Z,983.1
2023-04-09T05:42:46.251Z,983.28
2023-04-09T05:48:17.632Z,983.35
2023-04-09T05:53:49.890Z,983.39
2023-04-09T05:59:21.487Z,983.85
2023-04-09T06:04:53.397Z,983.87
2023-04-09T06:10:24.782Z,983.93
2023-04-09T06:15:57.359Z,984.15
2023-04-09T06:21:28.343Z,984.3
2023-04-09T06:27:00.077Z,985.01
2023-04-09T06:32:53.600Z,985.67
2023-04-09T06:38:03.689Z,985.86
2023-04-09T06:43:39.466Z,985.87
2023-04-09T06:49:11.547Z,986.45
2023-04-09T06:54:43.115Z,987.02
2023-04-09T07:00:14.901Z,987.2
2023-04-09T07:05:46.569Z,987.29
2023-04-09T07:11:18.262Z,987.27
2023-04-09T07:16:51.233Z,986.99
2023-04-09T07:22:21.414Z,987.76
2023-04-09T07:27:53.162Z,988.81
2023-04-09T07:33:25.332Z,988.38
2023-04-09T07:38:56.642Z,988.54
2023-04-09T07:44:33.090Z,988.77
2023-04-09T07:50:04.668Z,988.76
2023-04-09T07:55:36.262Z,988.1
2023-04-09T08:01:07.953Z,987.93
2023-04-09T08:06:41.067Z,988.68
2023-04-09T08:12:12.510Z,987.95
2023-04-09T08:17:43.708Z,987.51
2023-04-09T08:23:14.994Z,988.34
2023-04-09T08:28:46.913Z,989.05
2023-04-09T08:34:18.651Z,989.65
2023-04-09T08:39:50.743Z,988.89
2023-04-09T08:45:28.932Z,989.01
2023-04-09T08:51:00.664Z,989.26
2023-04-09T08:56:32.167Z,988.98
2023-04-09T09:02:04.397Z,988.84
2023-04-09T09:07:35.581Z,989.8
2023-04-09T09:13:07.265Z,990.34
2023-04-09T09:18:39.341Z,988.58
2023-04-09T09:24:11.161Z,988.06
2023-04-09T09:29:42.411Z,987.01
2023-04-09T09:35:14.191Z,988.82
2023-04-09T09:40:45.751Z,987.75
2023-04-09T09:46:22.256Z,986.08
2023-04-09T09:51:53.746Z,986.51
2023-04-09T09:57:25.773Z,986.79
2023-04-09T10:02:57.944Z,986.34
2023-04-09T10:08:28.831Z,987.81
2023-04-09T10:14:01.135Z,987.2
2023-04-09T10:19:32.786Z,987.46
2023-04-09T10:25:04.049Z,985.7
2023-04-09T10:30:35.787Z,986.58
2023-04-09T10:36:07.601Z,986.08
2023-04-09T10:41:39.566Z,986.04
2023-04-09T10:47:16.129Z,987.51
2023-04-09T10:52:47.257Z,987.83
2023-04-09T10:58:19.349Z,986.66
2023-04-09T11:03:50.677Z,986.51
2023-04-09T11:09:22.695Z,986.14
2023-04-09T11:14:54.271Z,985.34
2023-04-09T11:20:26.040Z,986.34
2023-04-09T11:25:57.586Z,985.66
2023-04-09T11:31:29.406Z,986.61
2023-04-09T11:37:01.026Z,987.2
2023-04-09T11:42:32.631Z,985.96
2023-04-09T11:48:08.904Z,986.21
2023-04-09T11:53:40.464Z,987.38
2023-04-09T11:59:12.518Z,987.57
2023-04-09T12:04:44.357Z,986.59
2023-04-09T12:10:15.845Z,987.27
2023-04-09T12:15:47.780Z,988.1
2023-04-09T12:21:20.349Z,988.13
2023-04-09T12:26:50.959Z,987.97
2023-04-09T12:32:22.697Z,987.95
2023-04-09T12:37:54.532Z,987.55
2023-04-09T12:43:26.423Z,985.44
2023-04-09T12:49:02.301Z,986.57
2023-04-09T12:54:34.683Z,986.42
2023-04-09T13:00:06.129Z,986.69
2023-04-09T13:05:37.292Z,986.68
2023-04-09T13:11:09.539Z,986.56
2023-04-09T13:16:41.610Z,985.63
2023-04-09T13:22:12.792Z,986.42
2023-04-09T13:27:44.315Z,986.12
2023-04-09T13:33:16.012Z,984.53
2023-04-09T13:38:48.533Z,984.23
2023-04-09T13:44:19.496Z,984.03
2023-04-09T13:49:55.817Z,984.38
2023-04-09T13:55:27.965Z,984.82
2023-04-09T14:01:03.298Z,984.95
2023-04-09T14:06:30.800Z,984.31
2023-04-09T14:12:02.632Z,983.93
2023-04-09T14:17:34.396Z,983.38
2023-04-09T14:23:06.455Z,982.95
2023-04-09T14:28:37.784Z,982.73
2023-04-09T14:34:09.517Z,983.19
2023-04-09T14:39:41.166Z,982.85
2023-04-09T14:45:13.782Z,983.24
2023-04-09T14:50:51.868Z,983.03
2023-04-09T14:56:22.771Z,982.45
2023-04-09T15:01:55.247Z,981.67
2023-04-09T15:07:26.381Z,981.93
2023-04-09T15:12:58.876Z,982.59
2023-04-09T15:18:29.872Z,983.31
2023-04-09T15:24:01.964Z,983.47
2023-04-09T15:29:33.165Z,982.94
2023-04-09T15:35:04.868Z,983.06
2023-04-09T15:40:37.287Z,982.45
2023-04-09T15:46:08.819Z,982.17
2023-04-09T15:51:46.907Z,982.31
2023-04-09T15:57:18.534Z,981.58
2023-04-09T16:02:50.025Z,982.67
2023-04-09T16:08:22.053Z,983.12
2023-04-09T16:13:53.532Z,982.07
2023-04-09T16:19:25.505Z,981.58
2023-04-09T16:24:56.858Z,981.88
2023-04-09T16:30:31.643Z,981.7
2023-04-09T16:36:01.302Z,981.1
2023-04-09T16:41:33.541Z,981.5
2023-04-09T16:47:03.794Z,980.36
2023-04-09T16:52:40.214Z,980.73
2023-04-09T16:58:11.624Z,980.74
2023-04-09T17:03:43.703Z,980.87
2023-04-09T17:09:15.386Z,980.57
2023-04-09T17:14:47.283Z,980.11
2023-04-09T17:20:18.854Z,979.92
2023-04-09T17:25:50.477Z,979.93
2023-04-09T17:31:22.075Z,979.67
2023-04-09T17:36:53.894Z,979.64
2023-04-09T17:42:25.551Z,979.26
2023-04-09T17:47:57.315Z,979.63
2023-04-09T17:53:35.657Z,978.93
2023-04-09T17:59:07.108Z,978.92
2023-04-09T18:04:39.814Z,979.0
2023-04-09T18:10:10.785Z,978.7
2023-04-09T18:15:42.430Z,978.66
2023-04-09T18:21:13.962Z,978.52
2023-04-09T18:26:45.778Z,978.63
2023-04-09T18:32:18.361Z,978.4
2023-04-09T18:37:49.516Z,978.24
2023-04-09T18:43:20.894Z,978.48
2023-04-09T18:48:53.889Z,978.37
2023-04-09T18:54:29.543Z,977.9
2023-04-09T19:00:01.286Z,978.04
2023-04-09T19:05:33.116Z,977.94
2023-04-09T19:11:04.879Z,977.96
2023-04-09T19:16:36.529Z,977.94
2023-04-09T19:22:08.500Z,977.69
2023-04-09T19:27:39.520Z,977.66
2023-04-09T19:33:11.848Z,978.23
2023-04-09T19:38:42.965Z,977.36
2023-04-09T19:44:15.051Z,976.88
2023-04-09T19:49:46.571Z,977.25
2023-04-09T19:55:22.861Z,977.06
2023-04-09T20:00:54.998Z,977.16
2023-04-09T20:06:26.143Z,977.38
2023-04-09T20:11:57.865Z,976.98
2023-04-09T20:17:30.766Z,976.71
2023-04-09T20:23:01.551Z,976.87
2023-04-09T20:28:33.301Z,976.38
2023-04-09T20:34:04.932Z,976.52
2023-04-09T20:39:36.542Z,976.85
2023-04-09T20:45:08.631Z,976.92
2023-04-09T20:50:40.498Z,976.78
2023-04-09T20:56:18.891Z,976.9
2023-04-09T21:01:50.603Z,976.5
2023-04-09T21:07:21.613Z,976.21
2023-04-09T21:12:53.353Z,976.27
2023-04-09T21:18:25.308Z,975.91
2023-04-09T21:23:57.116Z,976.18
2023-04-09T21:29:28.609Z,975.94
2023-04-09T21:35:08.026Z,976.16
2023-04-09T21:40:39.820Z,975.85
2023-04-09T21:46:11.169Z,976.05
2023-04-09T21:51:42.690Z,976.2
2023-04-09T21:57:18.738Z,976.27
2023-04-09T22:02:51.116Z,975.87
2023-04-09T22:08:22.170Z,975.94
2023-04-09T22:13:54.025Z,976.06
2023-04-09T22:19:25.828Z,975.8
2023-04-09T22:24:57.446Z,975.32
2023-04-09T22:30:29.256Z,975.43
2023-04-09T22:36:00.861Z,975.64
2023-04-09T22:41:32.371Z,975.33
2023-04-09T22:47:04.172Z,975.0
2023-04-09T22:52:35.818Z,974.8
2023-04-09T22:58:12.168Z,974.56
2023-04-09T23:03:43.863Z,974.63
2023-04-09T23:09:15.598Z,974.85
2023-04-09T23:14:50.308Z,975.18
2023-04-09T23:20:18.948Z,974.32
2023-04-09T23:25:50.794Z,974.87
2023-04-09T23:31:22.827Z,975.18
2023-04-09T23:36:54.354Z,974.75
2023-04-09T23:42:26.349Z,975.2
2023-04-09T23:47:57.711Z,975.26
2023-04-09T23:53:29.312Z,975.16
2023-04-09T23:59:07.752Z,975.07
